CheckWX is a tool to help pilots better visualize weather data.  It is not intended as a substitute for an official pre-flight weather briefing.

19:40:55 UTC

EGPF METAR
Glasgow International Airport
Glasgow, United Kingdom
Current

21 mins ago

EGPF 211920Z AUTO 08014KT 9999 NCD 17/12 Q1007
Observed
Sep-21 @ 19:20 UTC
Wind
  • 080° at 14 KTS
Visibility
10,000+ meters
Flight Rules
VFR
Cloud Levels
  • Clear skies
Temperature
17°C / 63°F
Dewpoint
12°C / 54°F
Humidity
73%
Altimeter
29.73" Hg
Pressure
1006.92 hPa
Previous

51 mins ago

EGPF 211850Z AUTO 08012KT 9999 NCD 17/12 Q1007
Observed
Sep-21 @ 18:50 UTC
Wind
  • 080° at 12 KTS
Visibility
10,000+ meters
Flight Rules
VFR
Cloud Levels
  • Clear skies
Temperature
17°C / 63°F
Dewpoint
12°C / 54°F
Humidity
73%
Altimeter
29.73" Hg
Pressure
1006.92 hPa
Previous

1 hour ago

EGPF 211820Z AUTO 07012KT 9999 NCD 18/12 Q1007
Observed
Sep-21 @ 18:20 UTC
Wind
  • 070° at 12 KTS
Visibility
10,000+ meters
Flight Rules
VFR
Cloud Levels
  • Clear skies
Temperature
18°C / 64°F
Dewpoint
12°C / 54°F
Humidity
68%
Altimeter
29.73" Hg
Pressure
1006.92 hPa